createdAt,value
2022-09-20T00:01:40.598Z,6.38
2022-09-20T00:04:10.290Z,6.80
2022-09-20T00:06:38.207Z,7.80
2022-09-20T00:09:06.665Z,6.35
2022-09-20T00:11:35.958Z,8.60
2022-09-20T00:14:08.528Z,5.63
2022-09-20T00:16:39.916Z,6.55
2022-09-20T00:19:09.109Z,6.28
2022-09-20T00:21:38.126Z,5.82
2022-09-20T00:24:06.333Z,8.18
2022-09-20T00:26:34.528Z,7.20
2022-09-20T00:29:04.261Z,6.88
2022-09-20T00:31:32.671Z,6.60
2022-09-20T00:34:19.874Z,6.72
2022-09-20T00:36:48.691Z,7.63
2022-09-20T00:39:18.284Z,7.20
2022-09-20T00:41:46.415Z,8.48
2022-09-20T00:44:43.365Z,8.73
2022-09-20T00:47:28.200Z,10.68
2022-09-20T00:50:20.639Z,9.75
2022-09-20T00:52:54.444Z,8.60
2022-09-20T00:55:23.770Z,7.78
2022-09-20T00:57:51.876Z,7.80
2022-09-20T01:00:20.036Z,7.78
2022-09-20T01:02:59.126Z,8.82
2022-09-20T01:05:28.215Z,8.25
2022-09-20T01:07:57.493Z,7.15
2022-09-20T01:10:26.108Z,7.15
2022-09-20T01:12:55.053Z,8.45
2022-09-20T01:15:27.589Z,8.35
2022-09-20T01:17:59.237Z,10.07
2022-09-20T01:20:32.143Z,7.72
2022-09-20T01:23:24.180Z,7.80
2022-09-20T01:26:20.023Z,8.65
2022-09-20T01:28:50.161Z,8.15
2022-09-20T01:31:34.703Z,9.98
2022-09-20T01:34:10.062Z,9.32
2022-09-20T01:36:52.099Z,8.07
2022-09-20T01:39:41.701Z,8.93
2022-09-20T01:42:15.072Z,8.02
2022-09-20T01:44:49.060Z,7.13
2022-09-20T01:47:35.591Z,9.75
2022-09-20T01:50:32.224Z,6.68
2022-09-20T01:53:25.690Z,9.00
2022-09-20T01:56:28.621Z,8.68
2022-09-20T01:59:24.494Z,8.82
2022-09-20T02:02:30.499Z,7.47
2022-09-20T02:05:30.688Z,7.75
2022-09-20T02:08:37.917Z,8.52
2022-09-20T02:11:38.306Z,9.57
2022-09-20T02:14:26.720Z,7.68
2022-09-20T02:17:24.257Z,8.02
2022-09-20T02:19:57.992Z,7.78
2022-09-20T02:22:56.392Z,7.95
2022-09-20T02:25:53.720Z,8.93
2022-09-20T02:28:55.889Z,8.55
2022-09-20T02:32:04.350Z,8.07
2022-09-20T02:35:02.394Z,6.53
2022-09-20T02:37:52.547Z,8.52
2022-09-20T02:40:26.954Z,6.65
2022-09-20T02:43:22.785Z,7.75
2022-09-20T02:46:04.971Z,8.80
2022-09-20T02:49:03.613Z,8.13
2022-09-20T02:51:50.232Z,9.60
2022-09-20T02:54:48.905Z,8.05
2022-09-20T02:57:35.938Z,11.32
2022-09-20T03:00:13.636Z,7.65
2022-09-20T03:02:59.910Z,7.97
2022-09-20T03:05:42.293Z,8.60
2022-09-20T03:08:49.484Z,8.98
2022-09-20T03:11:29.703Z,9.52
2022-09-20T03:14:10.769Z,7.68
2022-09-20T03:17:16.491Z,7.97
2022-09-20T03:20:15.565Z,10.27
2022-09-20T03:23:01.270Z,9.30
2022-09-20T03:25:54.550Z,9.05
2022-09-20T03:28:37.323Z,7.80
2022-09-20T03:31:14.502Z,9.43
2022-09-20T03:34:24.758Z,7.97
2022-09-20T03:37:20.781Z,9.68
2022-09-20T03:40:49.338Z,7.38
2022-09-20T03:43:26.297Z,8.35
2022-09-20T03:46:05.607Z,8.25
2022-09-20T03:48:56.086Z,8.20
2022-09-20T03:51:31.718Z,8.95
2022-09-20T03:54:27.553Z,8.13
2022-09-20T03:57:23.582Z,9.30
2022-09-20T04:00:21.144Z,7.78
2022-09-20T04:03:29.090Z,9.40
2022-09-20T04:06:17.958Z,8.00
2022-09-20T04:09:07.533Z,7.70
2022-09-20T04:11:50.934Z,9.68
2022-09-20T04:14:38.162Z,8.18
2022-09-20T04:17:26.241Z,8.48
2022-09-20T04:20:05.867Z,9.02
2022-09-20T04:22:34.726Z,7.88
2022-09-20T04:25:23.341Z,10.10
2022-09-20T04:27:58.839Z,8.82
2022-09-20T04:30:30.251Z,8.85
2022-09-20T04:33:13.510Z,10.05
2022-09-20T04:36:03.009Z,10.07
2022-09-20T04:38:33.886Z,8.25
2022-09-20T04:41:16.644Z,8.57
2022-09-20T04:44:11.542Z,9.23
2022-09-20T04:47:18.514Z,7.75
2022-09-20T04:50:12.595Z,8.57
2022-09-20T04:53:16.526Z,9.55
2022-09-20T04:56:16.587Z,9.10
2022-09-20T04:59:06.018Z,9.32
2022-09-20T05:02:12.974Z,8.32
2022-09-20T05:05:19.180Z,9.32
2022-09-20T05:07:56.913Z,8.48
2022-09-20T05:11:11.997Z,8.20
2022-09-20T05:14:22.880Z,10.02
2022-09-20T05:17:12.283Z,8.77
2022-09-20T05:20:07.286Z,7.55
2022-09-20T05:22:54.976Z,9.55
2022-09-20T05:25:36.274Z,8.85
2022-09-20T05:28:07.096Z,8.18
2022-09-20T05:30:47.112Z,7.10
2022-09-20T05:33:27.333Z,10.05
2022-09-20T05:36:04.337Z,11.98
2022-09-20T05:38:41.871Z,10.75
2022-09-20T05:41:35.571Z,11.57
2022-09-20T05:44:21.087Z,10.02
2022-09-20T05:47:14.151Z,9.48
2022-09-20T05:50:06.489Z,10.15
2022-09-20T05:52:58.547Z,9.82
2022-09-20T05:55:47.074Z,9.25
2022-09-20T05:58:22.003Z,9.85
2022-09-20T06:01:15.084Z,9.77
2022-09-20T06:04:22.639Z,9.43
2022-09-20T06:07:13.865Z,9.57
2022-09-20T06:10:15.302Z,9.65
2022-09-20T06:13:22.054Z,8.93
2022-09-20T06:15:57.454Z,11.60
2022-09-20T06:18:45.592Z,9.40
2022-09-20T06:21:42.809Z,11.05
2022-09-20T06:24:33.841Z,12.23
2022-09-20T06:27:08.873Z,9.87
2022-09-20T06:29:41.940Z,11.60
2022-09-20T06:32:10.288Z,10.88
2022-09-20T06:34:38.150Z,8.60
2022-09-20T06:37:40.184Z,8.93
2022-09-20T06:40:55.878Z,11.02
2022-09-20T06:43:24.933Z,9.63
2022-09-20T06:45:53.869Z,10.20
2022-09-20T06:48:22.140Z,10.07
2022-09-20T06:50:52.291Z,10.65
2022-09-20T06:53:33.101Z,12.35
2022-09-20T06:56:01.993Z,10.00
2022-09-20T06:58:30.449Z,11.50
2022-09-20T07:00:58.364Z,10.75
2022-09-20T07:03:26.938Z,10.80
2022-09-20T07:05:55.224Z,10.00
2022-09-20T07:08:23.072Z,11.00
2022-09-20T07:10:51.563Z,12.45
2022-09-20T07:13:20.948Z,11.55
2022-09-20T07:15:49.223Z,11.57
2022-09-20T07:18:17.761Z,10.82
2022-09-20T07:20:47.146Z,11.82
2022-09-20T07:23:15.700Z,11.20
2022-09-20T07:25:44.123Z,11.98
2022-09-20T07:28:12.708Z,12.63
2022-09-20T07:30:40.892Z,11.65
2022-09-20T07:33:12.125Z,11.88
2022-09-20T07:35:41.727Z,11.18
2022-09-20T07:38:10.429Z,13.38
2022-09-20T07:40:38.641Z,11.48
2022-09-20T07:43:06.925Z,8.93
2022-09-20T07:45:39.797Z,10.90
2022-09-20T07:48:09.636Z,10.82
2022-09-20T07:50:37.550Z,8.60
2022-09-20T07:53:05.371Z,11.43
2022-09-20T07:55:34.798Z,9.65
2022-09-20T07:58:02.761Z,9.50
2022-09-20T08:00:31.578Z,10.20
2022-09-20T08:03:00.561Z,9.75
2022-09-20T08:05:28.977Z,11.15
2022-09-20T08:08:00.291Z,11.43
2022-09-20T08:10:28.495Z,9.48
2022-09-20T08:15:45.576Z,10.70
2022-09-20T08:18:14.846Z,11.65
2022-09-20T08:20:43.002Z,12.18
2022-09-20T08:23:23.462Z,9.70
2022-09-20T08:25:51.979Z,9.77
2022-09-20T08:28:20.864Z,11.85
2022-09-20T08:30:51.555Z,11.73
2022-09-20T08:33:20.121Z,13.70
2022-09-20T08:44:12.773Z,9.07
2022-09-20T08:46:56.478Z,10.20
2022-09-20T08:49:27.623Z,11.18
2022-09-20T08:51:59.783Z,10.70
2022-09-20T08:54:32.476Z,8.38
2022-09-20T08:57:11.101Z,9.13
2022-09-20T08:59:40.915Z,8.63
2022-09-20T09:02:24.068Z,8.52
2022-09-20T09:04:53.908Z,7.43
2022-09-20T09:07:23.829Z,7.55
2022-09-20T09:09:54.510Z,7.20
2022-09-20T09:12:26.046Z,10.15
2022-09-20T09:14:59.725Z,7.07
2022-09-20T09:17:30.463Z,8.73
2022-09-20T09:19:58.868Z,5.80
2022-09-20T09:22:49.117Z,8.00
2022-09-20T09:25:34.457Z,5.20
2022-09-20T09:28:13.381Z,5.45
2022-09-20T09:30:48.001Z,4.88
2022-09-20T09:33:34.997Z,4.80
2022-09-20T09:36:08.673Z,3.92
2022-09-20T09:38:39.358Z,4.00
2022-09-20T09:44:10.498Z,3.75
2022-09-20T09:46:40.296Z,4.13
2022-09-20T09:49:12.877Z,3.50
2022-09-20T09:52:02.212Z,4.88
2022-09-20T09:54:39.196Z,3.88
2022-09-20T09:57:48.843Z,5.70
2022-09-20T10:00:23.675Z,3.70
2022-09-20T10:03:13.646Z,5.25
2022-09-20T10:06:10.355Z,4.00
2022-09-20T10:09:13.407Z,6.55
2022-09-20T10:12:26.556Z,4.65
2022-09-20T10:15:14.544Z,4.45
2022-09-20T10:17:52.495Z,5.13
2022-09-20T10:20:31.317Z,4.60
2022-09-20T10:23:34.359Z,3.17
2022-09-20T10:26:08.103Z,2.40
2022-09-20T10:29:18.280Z,2.95
2022-09-20T10:32:15.912Z,2.90
2022-09-20T10:35:08.390Z,2.13
2022-09-20T10:41:09.114Z,4.25
2022-09-20T10:43:50.344Z,3.72
2022-09-20T10:46:42.847Z,2.38
2022-09-20T10:49:29.084Z,2.47
2022-09-20T10:55:04.634Z,3.38
2022-09-20T10:58:24.829Z,4.50
2022-09-20T11:01:19.451Z,5.03
2022-09-20T11:04:10.536Z,3.85
2022-09-20T11:07:03.116Z,3.90
2022-09-20T11:09:41.522Z,2.03
2022-09-20T11:12:31.333Z,4.30
2022-09-20T11:15:05.925Z,2.72
2022-09-20T11:17:49.164Z,3.20
2022-09-20T11:20:40.131Z,2.90
2022-09-20T11:23:27.154Z,5.47
2022-09-20T11:26:13.447Z,2.42
2022-09-20T11:28:46.368Z,4.50
2022-09-20T11:31:15.297Z,3.15
2022-09-20T11:33:53.005Z,2.92
2022-09-20T11:36:39.597Z,3.45
2022-09-20T11:39:17.872Z,4.15
2022-09-20T11:41:47.653Z,3.60
2022-09-20T11:44:18.589Z,3.47
2022-09-20T11:49:56.536Z,4.07
2022-09-20T11:53:15.525Z,3.30
2022-09-20T11:55:52.275Z,4.00
2022-09-20T11:58:22.546Z,2.60
2022-09-20T12:00:55.206Z,4.85
2022-09-20T12:04:00.119Z,2.83
2022-09-20T12:06:40.680Z,3.22
2022-09-20T12:09:42.477Z,3.53
2022-09-20T12:12:47.266Z,2.72
2022-09-20T12:15:21.796Z,3.53
2022-09-20T12:17:50.431Z,3.08
2022-09-20T12:21:06.946Z,4.20
2022-09-20T12:24:17.541Z,4.18
2022-09-20T12:27:09.462Z,5.07
2022-09-20T12:29:55.135Z,3.80
2022-09-20T12:32:32.732Z,3.17
2022-09-20T12:35:34.911Z,2.67
2022-09-20T12:38:22.169Z,2.75
2022-09-20T12:41:13.518Z,3.13
2022-09-20T12:43:58.964Z,3.22
2022-09-20T12:48:46.706Z,3.53
2022-09-20T12:51:34.016Z,3.28
2022-09-20T12:54:14.056Z,4.65
2022-09-20T12:56:44.504Z,3.47
2022-09-20T13:01:53.198Z,2.55
2022-09-20T13:04:53.152Z,3.97
2022-09-20T13:07:43.945Z,3.08
2022-09-20T13:10:39.003Z,5.25
2022-09-20T13:13:16.844Z,5.75
2022-09-20T13:15:50.550Z,4.32
2022-09-20T13:18:19.609Z,3.42
2022-09-20T13:20:47.983Z,3.83
2022-09-20T13:23:52.052Z,2.88
2022-09-20T13:26:27.586Z,4.72
2022-09-20T13:28:59.273Z,4.20
2022-09-20T13:31:30.851Z,4.30
2022-09-20T13:34:24.460Z,4.40
2022-09-20T13:36:58.354Z,4.82
2022-09-20T13:39:37.351Z,6.28
2022-09-20T13:42:12.250Z,3.80
2022-09-20T13:44:42.571Z,4.38
2022-09-20T13:47:27.134Z,7.10
2022-09-20T13:50:14.206Z,4.78
2022-09-20T13:52:48.397Z,4.25
2022-09-20T13:55:32.022Z,4.40
2022-09-20T13:58:04.490Z,4.65
2022-09-20T14:00:34.892Z,3.70
2022-09-20T14:03:04.648Z,3.40
2022-09-20T14:05:33.540Z,4.38
2022-09-20T14:08:01.885Z,5.68
2022-09-20T14:10:43.034Z,3.95
2022-09-20T14:13:16.718Z,5.72
2022-09-20T14:15:47.511Z,3.70
2022-09-20T14:18:18.835Z,2.95
2022-09-20T14:20:47.787Z,5.07
2022-09-20T14:23:48.889Z,6.50
2022-09-20T14:26:17.333Z,4.43
2022-09-20T14:28:46.899Z,5.28
2022-09-20T14:31:32.573Z,5.22
2022-09-20T14:34:03.452Z,5.78
2022-09-20T14:36:31.822Z,3.90
2022-09-20T14:39:05.083Z,4.18
2022-09-20T14:41:38.987Z,4.18
2022-09-20T14:44:23.747Z,4.53
2022-09-20T14:46:51.861Z,2.88
2022-09-20T14:49:26.294Z,5.22
2022-09-20T14:52:26.888Z,3.58
2022-09-20T14:55:11.063Z,4.70
2022-09-20T14:57:39.927Z,4.03
2022-09-20T15:00:16.606Z,4.05
2022-09-20T15:02:46.535Z,4.57
2022-09-20T15:05:26.173Z,4.20
2022-09-20T15:07:56.809Z,3.53
2022-09-20T15:10:27.934Z,3.80
2022-09-20T15:12:56.903Z,3.80
2022-09-20T15:15:24.804Z,5.50
2022-09-20T15:17:53.420Z,3.72
2022-09-20T15:20:24.461Z,3.53
2022-09-20T15:25:21.614Z,3.83
2022-09-20T15:27:51.877Z,5.15
2022-09-20T15:30:21.109Z,3.88
2022-09-20T15:32:49.722Z,5.55
2022-09-20T15:35:17.819Z,3.67
2022-09-20T15:37:46.130Z,4.20
2022-09-20T15:40:15.460Z,4.82
2022-09-20T15:42:44.253Z,4.88
2022-09-20T15:45:12.437Z,7.30
2022-09-20T15:47:42.504Z,4.30
2022-09-20T15:50:11.211Z,4.38
2022-09-20T15:52:41.204Z,5.97
2022-09-20T15:55:09.671Z,4.20
2022-09-20T15:57:39.612Z,3.88
2022-09-20T16:00:09.798Z,3.72
2022-09-20T16:02:38.749Z,2.88
2022-09-20T16:05:10.086Z,3.42
2022-09-20T16:07:38.342Z,4.20
2022-09-20T16:10:07.534Z,4.80
2022-09-20T16:12:35.771Z,5.07
2022-09-20T16:15:03.887Z,6.40
2022-09-20T16:17:53.669Z,7.15
2022-09-20T16:20:23.350Z,5.82
2022-09-20T16:22:51.160Z,7.60
2022-09-20T16:25:18.972Z,8.15
2022-09-20T16:27:48.594Z,5.65
2022-09-20T16:30:17.560Z,6.22
2022-09-20T16:32:46.386Z,4.38
2022-09-20T16:35:16.815Z,4.22
2022-09-20T16:37:46.037Z,5.18
2022-09-20T16:40:15.300Z,4.18
2022-09-20T16:42:52.104Z,5.80
2022-09-20T16:45:21.431Z,6.15
2022-09-20T16:47:50.258Z,5.30
2022-09-20T16:50:18.648Z,7.47
2022-09-20T16:52:47.253Z,4.90
2022-09-20T16:57:51.748Z,6.63
2022-09-20T17:00:21.996Z,5.13
2022-09-20T17:02:50.678Z,4.68
2022-09-20T17:05:22.342Z,5.55
2022-09-20T17:07:50.990Z,4.90
2022-09-20T17:10:20.117Z,4.97
2022-09-20T17:12:52.462Z,6.55
2022-09-20T17:15:20.373Z,4.72
2022-09-20T17:17:49.285Z,4.90
2022-09-20T17:20:18.088Z,4.97
2022-09-20T17:22:46.480Z,5.38
2022-09-20T17:25:14.531Z,6.68
2022-09-20T17:27:42.390Z,8.77
2022-09-20T17:30:10.946Z,7.68
2022-09-20T17:32:38.986Z,6.35
2022-09-20T17:35:07.752Z,6.57
2022-09-20T17:37:36.095Z,5.80
2022-09-20T17:40:05.397Z,7.00
2022-09-20T17:42:34.697Z,7.75
2022-09-20T17:45:05.632Z,5.50
2022-09-20T17:47:33.642Z,5.55
2022-09-20T17:50:01.522Z,6.53
2022-09-20T17:52:30.002Z,6.85
2022-09-20T17:54:58.621Z,5.20
2022-09-20T17:57:26.814Z,6.60
2022-09-20T17:59:55.554Z,6.75
2022-09-20T18:02:23.884Z,5.93
2022-09-20T18:04:52.771Z,6.53
2022-09-20T18:07:21.683Z,6.38
2022-09-20T18:09:49.832Z,8.90
2022-09-20T18:12:20.821Z,8.20
2022-09-20T18:14:50.385Z,8.50
2022-09-20T18:17:18.401Z,10.07
2022-09-20T18:19:47.499Z,8.63
2022-09-20T18:22:17.919Z,8.20
2022-09-20T18:24:46.383Z,9.10
2022-09-20T18:27:15.107Z,8.02
2022-09-20T18:29:43.901Z,8.57
2022-09-20T18:32:12.771Z,8.73
2022-09-20T18:34:41.092Z,9.57
2022-09-20T18:37:13.932Z,11.00
2022-09-20T18:39:43.678Z,10.38
2022-09-20T18:42:12.139Z,8.85
2022-09-20T18:44:43.773Z,7.75
2022-09-20T18:47:13.157Z,9.35
2022-09-20T18:49:41.011Z,7.97
2022-09-20T18:52:10.829Z,7.35
2022-09-20T18:54:42.322Z,9.87
2022-09-20T18:57:10.914Z,7.50
2022-09-20T18:59:46.651Z,8.73
2022-09-20T19:02:33.351Z,8.35
2022-09-20T19:05:11.988Z,6.60
2022-09-20T19:08:03.429Z,7.90
2022-09-20T19:13:29.738Z,7.75
2022-09-20T19:16:19.149Z,6.95
2022-09-20T19:19:33.905Z,9.02
2022-09-20T19:22:02.891Z,7.90
2022-09-20T19:24:43.075Z,8.00
2022-09-20T19:27:12.809Z,8.10
2022-09-20T19:29:41.552Z,11.73
2022-09-20T19:32:17.365Z,15.65
2022-09-20T19:34:46.846Z,11.48
2022-09-20T19:37:26.079Z,10.18
2022-09-20T19:40:20.665Z,13.63
2022-09-20T19:43:03.864Z,17.60
2022-09-20T19:46:11.698Z,14.50
2022-09-20T19:48:45.286Z,15.73
2022-09-20T19:51:14.070Z,16.40
2022-09-20T19:53:42.473Z,13.13
2022-09-20T19:56:16.855Z,12.93
2022-09-20T19:58:46.683Z,11.20
2022-09-20T20:01:14.833Z,15.27
2022-09-20T20:03:46.614Z,14.32
2022-09-20T20:06:30.065Z,13.02
2022-09-20T20:12:00.312Z,12.43
2022-09-20T20:14:50.787Z,9.85
2022-09-20T20:20:11.835Z,11.70
2022-09-20T20:23:04.599Z,10.80
2022-09-20T20:26:00.181Z,9.82
2022-09-20T20:28:29.773Z,10.32
2022-09-20T20:31:00.009Z,10.68
2022-09-20T20:33:30.113Z,8.98
2022-09-20T20:36:01.681Z,10.80
2022-09-20T20:38:37.669Z,9.32
2022-09-20T20:41:08.263Z,11.50
2022-09-20T20:43:42.138Z,9.90
2022-09-20T20:46:14.362Z,8.20
2022-09-20T20:48:42.648Z,7.85
2022-09-20T20:51:13.514Z,9.10
2022-09-20T20:53:50.364Z,8.35
2022-09-20T20:56:20.399Z,8.43
2022-09-20T20:58:49.911Z,6.37
2022-09-20T21:01:24.200Z,11.27
2022-09-20T21:03:54.503Z,7.65
2022-09-20T21:06:25.099Z,8.80
2022-09-20T21:08:53.315Z,8.63
2022-09-20T21:11:27.851Z,10.95
2022-09-20T21:13:57.849Z,7.25
2022-09-20T21:16:31.154Z,8.00
2022-09-20T21:18:59.544Z,8.02
2022-09-20T21:21:38.826Z,7.85
2022-09-20T21:24:09.191Z,8.15
2022-09-20T21:26:38.507Z,7.60
2022-09-20T21:29:11.446Z,7.53
2022-09-20T21:31:41.489Z,7.30
2022-09-20T21:34:12.268Z,9.95
2022-09-20T21:36:44.844Z,9.23
2022-09-20T21:39:13.856Z,7.82
2022-09-20T21:41:42.287Z,9.55
2022-09-20T21:44:10.774Z,9.68
2022-09-20T21:46:42.541Z,8.93
2022-09-20T21:49:12.927Z,14.25
2022-09-20T21:51:42.840Z,9.82
2022-09-20T21:54:11.454Z,8.48
2022-09-20T21:56:41.276Z,11.32
2022-09-20T21:59:09.578Z,10.43
2022-09-20T22:01:39.326Z,11.55
2022-09-20T22:04:09.959Z,11.77
2022-09-20T22:06:43.721Z,9.88
2022-09-20T22:09:14.721Z,10.70
2022-09-20T22:11:48.602Z,10.02
2022-09-20T22:14:19.772Z,10.77
2022-09-20T22:16:48.940Z,10.38
2022-09-20T22:19:19.328Z,10.20
2022-09-20T22:21:49.962Z,9.52
2022-09-20T22:24:18.482Z,10.20
2022-09-20T22:26:49.778Z,10.82
2022-09-20T22:29:19.138Z,11.90
2022-09-20T22:31:50.036Z,12.07
2022-09-20T22:34:20.911Z,11.70
2022-09-20T22:36:52.156Z,12.88
2022-09-20T22:39:20.028Z,14.32
2022-09-20T22:41:50.621Z,9.32
2022-09-20T22:44:21.431Z,10.50
2022-09-20T22:46:52.045Z,10.13
2022-09-20T22:49:20.097Z,10.95
2022-09-20T22:51:48.433Z,10.25
2022-09-20T22:54:16.763Z,13.02
2022-09-20T22:56:44.905Z,12.48
2022-09-20T22:59:14.561Z,10.40
2022-09-20T23:01:45.050Z,11.73
2022-09-20T23:04:18.703Z,16.05
2022-09-20T23:06:51.933Z,11.43
2022-09-20T23:09:20.618Z,13.00
2022-09-20T23:11:49.534Z,11.50
2022-09-20T23:14:19.873Z,12.35
2022-09-20T23:16:48.941Z,9.73
2022-09-20T23:19:17.332Z,10.60
2022-09-20T23:21:45.864Z,10.80
2022-09-20T23:24:16.721Z,10.82
2022-09-20T23:26:44.935Z,10.10
2022-09-20T23:29:15.352Z,10.55
2022-09-20T23:31:46.655Z,11.73
2022-09-20T23:36:44.746Z,12.13
2022-09-20T23:39:13.986Z,10.10
2022-09-20T23:41:45.926Z,10.35
2022-09-20T23:44:17.249Z,11.07
2022-09-20T23:46:45.123Z,8.93
2022-09-20T23:49:14.200Z,9.68
2022-09-20T23:51:42.337Z,9.38
2022-09-20T23:54:10.180Z,11.35
2022-09-20T23:56:38.997Z,7.75
2022-09-20T23:59:07.303Z,11.18
